Time,TemperatureF,DewpointF,PressureIn,WindDirection,WindDirectionDegrees,WindSpeedMPH,WindSpeedGustMPH,Humidity,HourlyPrecipIn,Conditions,Clouds,dailyrainin,SoftwareType,DateUTC
2013-05-16 00:01:00,62.9,42.4,29.76,SE,125,0.0,0.0,47,0.00,,BKN110,0.00,VWS V14.01,2013-05-16 05:01:00,
2013-05-16 00:06:00,63.1,44.7,29.76,SE,125,0.0,0.0,51,0.00,,BKN110,0.00,VWS V14.01,2013-05-16 05:06:00,
2013-05-16 00:11:00,63.4,46.0,29.76,SE,126,0.0,0.0,53,0.00,,BKN110,0.00,VWS V14.01,2013-05-16 05:11:00,
2013-05-16 00:16:00,64.0,45.0,29.76,West,259,1.0,1.0,50,0.00,,BKN110,0.00,VWS V14.01,2013-05-16 05:16:00,
2013-05-16 00:21:00,63.7,44.7,29.76,WSW,241,2.0,2.0,50,0.00,,BKN110,0.00,VWS V14.01,2013-05-16 05:21:00,
2013-05-16 00:26:00,62.6,44.8,29.76,WSW,239,2.0,2.0,52,0.00,,BKN110,0.00,VWS V14.01,2013-05-16 05:26:00,
2013-05-16 00:31:00,61.6,45.8,29.76,WSW,239,3.0,5.0,56,0.00,,BKN110,0.00,VWS V14.01,2013-05-16 05:31:00,
2013-05-16 00:36:00,62.2,46.8,29.76,WSW,257,5.0,5.0,57,0.00,,BKN120,0.00,VWS V14.01,2013-05-16 05:36:00,
2013-05-16 00:41:00,62.7,47.3,29.76,West,263,1.0,5.0,57,0.00,,BKN120,0.00,VWS V14.01,2013-05-16 05:41:00,
2013-05-16 00:46:00,61.8,45.5,29.77,NNE,25,0.0,5.0,55,0.00,,BKN120,0.00,VWS V14.01,2013-05-16 05:46:00,
2013-05-16 00:51:00,61.2,46.3,29.77,SW,232,1.0,5.0,58,0.00,,BKN120,0.00,VWS V14.01,2013-05-16 05:51:00,
2013-05-16 00:56:00,61.4,46.5,29.77,WNW,302,0.0,5.0,58,0.00,,BKN120,0.00,VWS V14.01,2013-05-16 05:56:00,
2013-05-16 01:01:00,61.7,46.3,29.78,NW,304,0.0,1.0,57,0.00,,BKN120,0.00,VWS V14.01,2013-05-16 06:01:00,
2013-05-16 01:06:00,61.5,46.1,29.78,SSE,158,1.0,1.0,57,0.00,,BKN120,0.00,VWS V14.01,2013-05-16 06:06:00,
2013-05-16 01:11:00,61.3,46.4,29.77,South,186,0.0,4.0,58,0.00,,BKN120,0.00,VWS V14.01,2013-05-16 06:11:00,
2013-05-16 01:16:00,61.3,46.9,29.77,SSW,205,2.0,4.0,59,0.00,,BKN120,0.00,VWS V14.01,2013-05-16 06:16:00,
2013-05-16 01:21:00,61.8,46.9,29.77,SSW,210,1.0,4.0,58,0.00,,BKN120,0.00,VWS V14.01,2013-05-16 06:21:00,
2013-05-16 01:26:00,61.4,46.5,29.78,NE,41,2.0,4.0,58,0.00,,BKN120,0.00,VWS V14.01,2013-05-16 06:26:00,
2013-05-16 01:31:00,60.2,46.7,29.77,NE,41,1.0,1.0,61,0.00,,BKN120,0.00,VWS V14.01,2013-05-16 06:31:00,
2013-05-16 01:36:00,60.8,46.4,29.77,NE,41,0.0,1.0,59,0.00,,BKN110,0.00,VWS V14.01,2013-05-16 06:36:00,
2013-05-16 01:41:00,60.7,46.3,29.78,NE,41,0.0,1.0,59,0.00,,BKN110,0.00,VWS V14.01,2013-05-16 06:41:00,
2013-05-16 01:46:00,60.3,46.4,29.78,NE,41,0.0,1.0,60,0.00,,BKN110,0.00,VWS V14.01,2013-05-16 06:46:00,
2013-05-16 01:51:00,60.5,47.0,29.78,NE,41,0.0,1.0,61,0.00,,BKN110,0.00,VWS V14.01,2013-05-16 06:51:00,
2013-05-16 01:56:00,60.7,46.8,29.77,NE,41,0.0,1.0,60,0.00,,BKN110,0.00,VWS V14.01,2013-05-16 06:56:00,
2013-05-16 02:01:00,59.7,46.2,29.78,NE,41,0.0,1.0,61,0.00,,BKN110,0.00,VWS V14.01,2013-05-16 07:01:00,
2013-05-16 02:06:00,59.2,46.2,29.78,ENE,58,1.0,2.0,62,0.00,,BKN110,0.00,VWS V14.01,2013-05-16 07:06:00,
2013-05-16 02:11:00,59.0,45.6,29.78,NE,56,1.0,2.0,61,0.00,,BKN110,0.00,VWS V14.01,2013-05-16 07:11:00,
2013-05-16 02:16:00,58.0,45.5,29.78,NE,56,0.0,2.0,63,0.00,,BKN110,0.00,VWS V14.01,2013-05-16 07:16:00,
2013-05-16 02:21:00,57.6,45.5,29.78,NE,56,1.0,2.0,64,0.00,,BKN110,0.00,VWS V14.01,2013-05-16 07:21:00,
2013-05-16 02:26:00,57.6,45.5,29.78,NE,56,0.0,2.0,64,0.00,,BKN110,0.00,VWS V14.01,2013-05-16 07:26:00,
2013-05-16 02:31:00,57.4,45.3,29.78,NE,56,0.0,0.0,64,0.00,,BKN110,0.00,VWS V14.01,2013-05-16 07:31:00,
2013-05-16 02:36:00,56.7,45.1,29.78,NE,56,1.0,1.0,65,0.00,,BKN110,0.00,VWS V14.01,2013-05-16 07:36:00,
2013-05-16 02:41:00,56.3,45.5,29.78,NE,56,0.0,1.0,67,0.00,,BKN110,0.00,VWS V14.01,2013-05-16 07:41:00,
2013-05-16 02:46:00,56.1,45.7,29.78,NE,55,2.0,2.0,68,0.00,,BKN110,0.00,VWS V14.01,2013-05-16 07:46:00,
2013-05-16 02:51:00,55.8,45.0,29.78,NE,48,0.0,3.0,67,0.00,,BKN110,0.00,VWS V14.01,2013-05-16 07:51:00,
2013-05-16 02:56:00,56.4,45.6,29.78,ENE,65,3.0,7.0,67,0.00,,BKN110,0.00,VWS V14.01,2013-05-16 07:56:00,
2013-05-16 03:01:00,55.8,45.8,29.78,WSW,240,0.0,2.0,69,0.00,,BKN110,0.00,VWS V14.01,2013-05-16 08:01:00,
2013-05-16 03:06:00,55.4,45.4,29.78,ESE,120,0.0,2.0,69,0.00,,BKN110,0.00,VWS V14.01,2013-05-16 08:06:00,
2013-05-16 03:11:00,55.7,45.7,29.78,ESE,120,1.0,2.0,69,0.00,,BKN110,0.00,VWS V14.01,2013-05-16 08:11:00,
2013-05-16 03:16:00,56.0,46.4,29.78,ESE,120,0.0,2.0,70,0.00,,BKN110,0.00,VWS V14.01,2013-05-16 08:16:00,
2013-05-16 03:21:00,56.1,45.7,29.78,ESE,120,0.0,2.0,68,0.00,,BKN110,0.00,VWS V14.01,2013-05-16 08:21:00,
2013-05-16 03:26:00,55.3,44.9,29.79,ESE,120,0.0,2.0,68,0.00,,BKN110,0.00,VWS V14.01,2013-05-16 08:26:00,
2013-05-16 03:31:00,54.9,45.7,29.79,ESE,120,0.0,0.0,71,0.00,,BKN110,0.00,VWS V14.01,2013-05-16 08:31:00,
2013-05-16 03:36:00,55.1,45.5,29.79,ESE,120,0.0,0.0,70,0.00,,BKN120,0.00,VWS V14.01,2013-05-16 08:36:00,
2013-05-16 03:41:00,55.3,45.3,29.79,ESE,120,0.0,0.0,69,0.00,,BKN120,0.00,VWS V14.01,2013-05-16 08:41:00,
2013-05-16 03:46:00,55.1,45.1,29.79,ESE,120,0.0,0.0,69,0.00,,BKN120,0.00,VWS V14.01,2013-05-16 08:46:00,
2013-05-16 03:51:00,55.1,45.5,29.79,ESE,120,0.0,0.0,70,0.00,,SCT110,0.00,VWS V14.01,2013-05-16 08:51:00,
2013-05-16 03:56:00,55.0,45.4,29.80,ESE,120,0.0,1.0,70,0.00,,SCT110,0.00,VWS V14.01,2013-05-16 08:56:00,
2013-05-16 04:01:00,55.0,45.0,29.80,ESE,120,0.0,0.0,69,0.00,,SCT110,0.00,VWS V14.01,2013-05-16 09:01:00,
2013-05-16 04:06:00,54.5,44.5,29.80,ESE,120,0.0,1.0,69,0.00,,SCT110,0.00,VWS V14.01,2013-05-16 09:06:00,
2013-05-16 04:11:00,54.3,44.7,29.80,East,94,0.0,1.0,70,0.00,,SCT110,0.00,VWS V14.01,2013-05-16 09:11:00,
2013-05-16 04:16:00,54.0,44.8,29.80,East,95,0.0,1.0,71,0.00,,SCT110,0.00,VWS V14.01,2013-05-16 09:16:00,
2013-05-16 04:21:00,53.8,44.6,29.80,East,94,1.0,1.0,71,0.00,,SCT110,0.00,VWS V14.01,2013-05-16 09:21:00,
2013-05-16 04:26:00,53.8,44.6,29.80,East,94,0.0,1.0,71,0.00,,SCT110,0.00,VWS V14.01,2013-05-16 09:26:00,
2013-05-16 04:31:00,53.7,44.9,29.81,East,94,0.0,0.0,72,0.00,,SCT110,0.00,VWS V14.01,2013-05-16 09:31:00,
2013-05-16 04:36:00,53.5,44.7,29.81,NNW,335,1.0,2.0,72,0.00,,BKN110,0.00,VWS V14.01,2013-05-16 09:36:00,
2013-05-16 04:41:00,53.5,44.7,29.81,North,349,0.0,2.0,72,0.00,,BKN110,0.00,VWS V14.01,2013-05-16 09:41:00,
2013-05-16 04:46:00,53.6,44.4,29.81,NNE,16,0.0,2.0,71,0.00,,BKN110,0.00,VWS V14.01,2013-05-16 09:46:00,
2013-05-16 04:50:00,53.9,43.6,29.81,NE,53,1.0,2.0,68,0.00,,BKN110,0.00,VWS V14.01,2013-05-16 09:50:00,
2013-05-16 04:55:00,54.4,42.9,29.81,NE,46,2.0,3.0,65,0.00,,BKN110,0.00,VWS V14.01,2013-05-16 09:55:00,
2013-05-16 05:00:00,54.6,42.3,29.81,NE,50,2.0,4.0,63,0.00,,BKN110,0.00,VWS V14.01,2013-05-16 10:00:00,
2013-05-16 05:05:00,54.6,41.9,29.81,NE,48,1.0,4.0,62,0.00,,BKN110,0.00,VWS V14.01,2013-05-16 10:05:00,
2013-05-16 05:10:00,54.3,42.0,29.81,NE,50,0.0,4.0,63,0.00,,BKN110,0.00,VWS V14.01,2013-05-16 10:10:00,
2013-05-16 05:15:00,54.0,41.7,29.81,NE,44,0.0,4.0,63,0.00,,BKN110,0.00,VWS V14.01,2013-05-16 10:15:00,
2013-05-16 05:20:00,53.9,41.6,29.82,NE,44,0.0,4.0,63,0.00,,BKN110,0.00,VWS V14.01,2013-05-16 10:20:00,
2013-05-16 05:25:00,53.9,41.2,29.82,NE,41,2.0,4.0,62,0.00,,BKN110,0.00,VWS V14.01,2013-05-16 10:25:00,
2013-05-16 05:30:00,53.8,41.1,29.82,NE,48,1.0,2.0,62,0.00,,BKN110,0.00,VWS V14.01,2013-05-16 10:30:00,
2013-05-16 05:35:00,53.7,41.0,29.82,NE,50,1.0,2.0,62,0.00,,BKN110,0.00,VWS V14.01,2013-05-16 10:35:00,
2013-05-16 05:40:00,53.6,40.9,29.82,NE,50,0.0,2.0,62,0.00,,BKN110,0.00,VWS V14.01,2013-05-16 10:40:00,
2013-05-16 05:45:00,53.4,40.7,29.83,NE,50,1.0,2.0,62,0.00,,BKN110,0.00,VWS V14.01,2013-05-16 10:45:00,
2013-05-16 05:50:00,53.5,40.8,29.83,NE,47,1.0,2.0,62,0.00,,BKN110,0.00,VWS V14.01,2013-05-16 10:50:00,
2013-05-16 05:55:00,53.6,40.5,29.83,NE,48,1.0,2.0,61,0.00,,BKN110,0.00,VWS V14.01,2013-05-16 10:55:00,
2013-05-16 06:00:00,53.8,40.7,29.83,NE,47,1.0,2.0,61,0.00,,BKN110,0.00,VWS V14.01,2013-05-16 11:00:00,
2013-05-16 06:05:00,54.1,40.5,29.83,NE,53,2.0,4.0,60,0.00,,BKN110,0.00,VWS V14.01,2013-05-16 11:05:00,
2013-05-16 06:10:00,54.5,40.9,29.84,NE,50,1.0,4.0,60,0.00,,BKN110,0.00,VWS V14.01,2013-05-16 11:10:00,
2013-05-16 06:15:00,54.8,40.8,29.84,NE,50,1.0,4.0,59,0.00,,BKN110,0.00,VWS V14.01,2013-05-16 11:15:00,
2013-05-16 06:20:00,55.0,41.0,29.84,NE,49,1.0,4.0,59,0.00,,BKN110,0.00,VWS V14.01,2013-05-16 11:20:00,
2013-05-16 06:25:00,55.3,40.8,29.84,NE,52,2.0,4.0,58,0.00,,BKN110,0.00,VWS V14.01,2013-05-16 11:25:00,
2013-05-16 06:30:00,55.5,41.0,29.84,NE,39,3.0,6.0,58,0.00,,BKN110,0.00,VWS V14.01,2013-05-16 11:30:00,
2013-05-16 06:35:00,55.8,40.8,29.85,NE,48,4.0,6.0,57,0.00,,SCT100,0.00,VWS V14.01,2013-05-16 11:35:00,
2013-05-16 06:40:00,56.0,41.0,29.85,NE,50,4.0,8.0,57,0.00,,SCT100,0.00,VWS V14.01,2013-05-16 11:40:00,
2013-05-16 06:45:00,56.0,41.0,29.85,ENE,58,4.0,8.0,57,0.00,,SCT100,0.00,VWS V14.01,2013-05-16 11:45:00,
2013-05-16 06:50:00,56.1,41.1,29.85,NE,46,4.0,8.0,57,0.00,,SCT090,0.00,VWS V14.01,2013-05-16 11:50:00,
2013-05-16 06:55:00,56.1,41.1,29.85,ENE,58,4.0,8.0,57,0.00,,SCT090,0.00,VWS V14.01,2013-05-16 11:55:00,
2013-05-16 07:00:00,56.1,41.1,29.86,ENE,60,4.0,6.0,57,0.00,,SCT090,0.00,VWS V14.01,2013-05-16 12:00:00,
2013-05-16 07:05:00,56.2,41.6,29.86,NE,45,4.0,7.0,58,0.00,,SCT090,0.00,VWS V14.01,2013-05-16 12:05:00,
2013-05-16 07:10:00,56.3,41.7,29.87,ENE,58,3.0,7.0,58,0.00,,SCT090,0.00,VWS V14.01,2013-05-16 12:10:00,
2013-05-16 07:15:00,56.6,42.0,29.87,ENE,64,3.0,7.0,58,0.00,,SCT090,0.00,VWS V14.01,2013-05-16 12:15:00,
2013-05-16 07:20:00,57.0,42.4,29.87,NE,51,3.0,7.0,58,0.00,,SCT090,0.00,VWS V14.01,2013-05-16 12:20:00,
2013-05-16 07:25:00,57.4,43.2,29.87,NE,52,3.0,7.0,59,0.00,,SCT090,0.00,VWS V14.01,2013-05-16 12:25:00,
2013-05-16 07:30:00,57.9,43.2,29.87,NE,51,6.0,8.0,58,0.00,,SCT090,0.00,VWS V14.01,2013-05-16 12:30:00,
2013-05-16 07:35:00,58.8,43.2,29.87,ENE,63,4.0,8.0,56,0.00,,SCT095,0.00,VWS V14.01,2013-05-16 12:35:00,
2013-05-16 07:40:00,59.3,43.2,29.87,ENE,58,3.0,8.0,55,0.00,,SCT095,0.00,VWS V14.01,2013-05-16 12:40:00,
2013-05-16 07:45:00,60.1,42.9,29.86,NE,50,3.0,8.0,53,0.00,,SCT095,0.00,VWS V14.01,2013-05-16 12:45:00,
2013-05-16 07:50:00,60.7,43.0,29.87,ENE,71,4.0,9.0,52,0.00,,SCT100,0.00,VWS V14.01,2013-05-16 12:50:00,
2013-05-16 07:55:00,61.2,43.5,29.87,ENE,70,4.0,11.0,52,0.00,,SCT100,0.00,VWS V14.01,2013-05-16 12:55:00,
2013-05-16 08:00:00,61.8,43.0,29.87,ENE,58,5.0,8.0,50,0.00,,SCT100,0.00,VWS V14.01,2013-05-16 13:00:00,
2013-05-16 08:05:00,62.3,43.4,29.87,ENE,77,9.0,9.0,50,0.00,,SCT100,0.00,VWS V14.01,2013-05-16 13:05:00,
2013-05-16 08:10:00,62.9,44.0,29.87,NE,56,4.0,9.0,50,0.00,,SCT100,0.00,VWS V14.01,2013-05-16 13:10:00,
2013-05-16 08:15:00,63.5,44.0,29.87,East,82,7.0,9.0,49,0.00,,SCT100,0.00,VWS V14.01,2013-05-16 13:15:00,
2013-05-16 08:20:00,64.1,44.0,29.88,East,94,3.0,9.0,48,0.00,,SCT100,0.00,VWS V14.01,2013-05-16 13:20:00,
2013-05-16 08:25:00,64.6,43.9,29.88,ENE,74,4.0,9.0,47,0.00,,SCT100,0.00,VWS V14.01,2013-05-16 13:25:00,
2013-05-16 08:30:00,65.2,43.9,29.88,East,100,7.0,10.0,46,0.00,,SCT100,0.00,VWS V14.01,2013-05-16 13:30:00,
2013-05-16 08:35:00,65.2,43.3,29.88,ENE,78,9.0,12.0,45,0.00,,CLR,0.00,VWS V14.01,2013-05-16 13:35:00,
2013-05-16 08:40:00,65.1,43.3,29.88,East,99,7.0,12.0,45,0.00,,CLR,0.00,VWS V14.01,2013-05-16 13:40:00,
2013-05-16 08:45:00,65.4,43.5,29.88,ESE,103,6.0,12.0,45,0.00,,CLR,0.00,VWS V14.01,2013-05-16 13:45:00,
2013-05-16 08:50:00,65.8,43.9,29.88,ENE,71,5.0,12.0,45,0.00,,CLR,0.00,VWS V14.01,2013-05-16 13:50:00,
2013-05-16 08:55:00,66.3,43.8,29.88,ENE,64,3.0,12.0,44,0.00,,CLR,0.00,VWS V14.01,2013-05-16 13:55:00,
2013-05-16 09:00:00,66.9,44.9,29.88,ENE,75,7.0,10.0,45,0.00,,CLR,0.00,VWS V14.01,2013-05-16 14:00:00,
2013-05-16 09:05:00,67.1,43.9,29.88,East,99,11.0,11.0,43,0.00,,CLR,0.00,VWS V14.01,2013-05-16 14:05:00,
2013-05-16 09:10:00,67.6,43.7,29.88,East,80,13.0,14.0,42,0.00,,CLR,0.00,VWS V14.01,2013-05-16 14:10:00,
2013-05-16 09:15:00,68.0,45.3,29.88,ENE,64,5.0,14.0,44,0.00,,CLR,0.00,VWS V14.01,2013-05-16 14:15:00,
2013-05-16 09:20:00,68.3,43.7,29.89,East,80,6.0,14.0,41,0.00,,CLR,0.00,VWS V14.01,2013-05-16 14:20:00,
2013-05-16 09:25:00,68.8,44.2,29.89,ENE,75,6.0,14.0,41,0.00,,CLR,0.00,VWS V14.01,2013-05-16 14:25:00,
2013-05-16 09:30:00,69.2,43.9,29.89,ENE,67,11.0,13.0,40,0.00,,CLR,0.00,VWS V14.01,2013-05-16 14:30:00,
2013-05-16 09:35:00,69.4,43.4,29.89,East,89,6.0,13.0,39,0.00,,CLR,0.00,VWS V14.01,2013-05-16 14:35:00,
2013-05-16 09:40:00,69.8,43.8,29.89,East,88,6.0,13.0,39,0.00,,CLR,0.00,VWS V14.01,2013-05-16 14:40:00,
2013-05-16 09:45:00,70.3,43.5,29.89,East,101,8.0,13.0,38,0.00,,CLR,0.00,VWS V14.01,2013-05-16 14:45:00,
2013-05-16 09:50:00,70.3,44.2,29.89,ENE,72,7.0,13.0,39,0.00,,CLR,0.00,VWS V14.01,2013-05-16 14:50:00,
2013-05-16 09:55:00,70.6,44.5,29.89,ENE,65,7.0,13.0,39,0.00,,CLR,0.00,VWS V14.01,2013-05-16 14:55:00,
2013-05-16 10:00:00,71.0,44.1,29.89,ENE,63,3.0,7.0,38,0.00,,CLR,0.00,VWS V14.01,2013-05-16 15:00:00,
2013-05-16 10:05:00,71.3,44.4,29.89,ENE,61,3.0,7.0,38,0.00,,CLR,0.00,VWS V14.01,2013-05-16 15:05:00,
2013-05-16 10:10:00,71.9,45.6,29.89,ENE,75,7.0,8.0,39,0.00,,CLR,0.00,VWS V14.01,2013-05-16 15:10:00,
2013-05-16 10:15:00,71.9,43.5,29.89,NE,45,4.0,8.0,36,0.00,,CLR,0.00,VWS V14.01,2013-05-16 15:15:00,
2013-05-16 10:20:00,72.3,44.6,29.89,East,101,7.0,8.0,37,0.00,,CLR,0.00,VWS V14.01,2013-05-16 15:20:00,
2013-05-16 10:25:00,72.3,43.1,29.89,ESE,113,6.0,8.0,35,0.00,,CLR,0.00,VWS V14.01,2013-05-16 15:25:00,
2013-05-16 10:30:00,72.6,44.1,29.89,ESE,102,7.0,7.0,36,0.00,,CLR,0.00,VWS V14.01,2013-05-16 15:30:00,
2013-05-16 10:35:00,72.9,43.7,29.89,ESE,103,10.0,11.0,35,0.00,,CLR,0.00,VWS V14.01,2013-05-16 15:35:00,
2013-05-16 10:40:00,72.7,43.5,29.88,East,82,7.0,11.0,35,0.00,,CLR,0.00,VWS V14.01,2013-05-16 15:40:00,
2013-05-16 10:45:00,73.1,43.8,29.88,ENE,76,6.0,14.0,35,0.00,,CLR,0.00,VWS V14.01,2013-05-16 15:45:00,
2013-05-16 10:50:00,73.3,43.3,29.88,NE,53,6.0,14.0,34,0.00,,CLR,0.00,VWS V14.01,2013-05-16 15:50:00,
2013-05-16 10:55:00,73.3,43.3,29.88,NNE,29,2.0,14.0,34,0.00,,CLR,0.00,VWS V14.01,2013-05-16 15:55:00,
2013-05-16 11:00:00,73.3,42.5,29.88,NE,43,2.0,11.0,33,0.00,,CLR,0.00,VWS V14.01,2013-05-16 16:00:00,
2013-05-16 11:05:00,73.7,42.0,29.88,NE,53,6.0,15.0,32,0.00,,CLR,0.00,VWS V14.01,2013-05-16 16:05:00,
2013-05-16 11:10:00,73.6,42.0,29.88,NNE,21,4.0,15.0,32,0.00,,CLR,0.00,VWS V14.01,2013-05-16 16:10:00,
2013-05-16 11:15:00,73.7,41.2,29.88,NE,56,8.0,15.0,31,0.00,,CLR,0.00,VWS V14.01,2013-05-16 16:15:00,
2013-05-16 11:20:00,73.8,41.3,29.88,ENE,64,9.0,15.0,31,0.00,,CLR,0.00,VWS V14.01,2013-05-16 16:20:00,
2013-05-16 11:25:00,74.2,39.9,29.88,ENE,73,6.0,15.0,29,0.00,,CLR,0.00,VWS V14.01,2013-05-16 16:25:00,
2013-05-16 11:30:00,74.1,41.6,29.88,East,101,7.0,11.0,31,0.00,,CLR,0.00,VWS V14.01,2013-05-16 16:30:00,
2013-05-16 11:35:00,74.9,43.1,29.88,ENE,71,8.0,17.0,32,0.00,,CLR,0.00,VWS V14.01,2013-05-16 16:35:00,
2013-05-16 11:40:00,74.9,40.5,29.87,ENE,71,12.0,17.0,29,0.00,,CLR,0.00,VWS V14.01,2013-05-16 16:40:00,
2013-05-16 11:45:00,74.8,39.5,29.87,ENE,62,2.0,17.0,28,0.00,,CLR,0.00,VWS V14.01,2013-05-16 16:45:00,
2013-05-16 11:50:00,75.3,39.0,29.87,NE,44,5.0,17.0,27,0.00,,CLR,0.00,VWS V14.01,2013-05-16 16:50:00,
2013-05-16 11:55:00,75.1,38.9,29.87,NE,39,7.0,17.0,27,0.00,,CLR,0.00,VWS V14.01,2013-05-16 16:55:00,
2013-05-16 12:00:00,75.4,40.1,29.87,ENE,67,5.0,13.0,28,0.00,,CLR,0.00,VWS V14.01,2013-05-16 17:00:00,
2013-05-16 12:05:00,75.8,41.3,29.87,East,82,6.0,13.0,29,0.00,,CLR,0.00,VWS V14.01,2013-05-16 17:05:00,
2013-05-16 12:10:00,75.6,38.3,29.87,ENE,60,9.0,14.0,26,0.00,,CLR,0.00,VWS V14.01,2013-05-16 17:10:00,
2013-05-16 12:15:00,75.4,39.1,29.87,NNW,343,2.0,14.0,27,0.00,,CLR,0.00,VWS V14.01,2013-05-16 17:15:00,
2013-05-16 12:20:00,75.8,38.5,29.87,East,89,2.0,14.0,26,0.00,,CLR,0.00,VWS V14.01,2013-05-16 17:20:00,
2013-05-16 12:25:00,75.8,38.5,29.87,ENE,74,6.0,14.0,26,0.00,,CLR,0.00,VWS V14.01,2013-05-16 17:25:00,
2013-05-16 12:30:00,75.9,37.6,29.86,ENE,64,13.0,17.0,25,0.00,,CLR,0.00,VWS V14.01,2013-05-16 17:30:00,
2013-05-16 12:35:00,75.9,38.6,29.86,ENE,64,8.0,17.0,26,0.00,,CLR,0.00,VWS V14.01,2013-05-16 17:35:00,
2013-05-16 12:40:00,75.9,37.6,29.86,NE,40,5.0,17.0,25,0.00,,CLR,0.00,VWS V14.01,2013-05-16 17:40:00,
2013-05-16 12:45:00,76.2,39.8,29.86,ENE,63,10.0,17.0,27,0.00,,CLR,0.00,VWS V14.01,2013-05-16 17:45:00,
2013-05-16 12:50:00,76.1,37.8,29.86,ENE,78,6.0,17.0,25,0.00,,CLR,0.00,VWS V14.01,2013-05-16 17:50:00,
2013-05-16 12:55:00,76.2,36.8,29.85,NE,53,2.0,17.0,24,0.00,,CLR,0.00,VWS V14.01,2013-05-16 17:55:00,
2013-05-16 13:00:00,76.9,38.4,29.85,East,79,8.0,14.0,25,0.00,,CLR,0.00,VWS V14.01,2013-05-16 18:00:00,
2013-05-16 13:05:00,76.7,38.3,29.85,ENE,77,7.0,16.0,25,0.00,,CLR,0.00,VWS V14.01,2013-05-16 18:05:00,
2013-05-16 13:10:00,76.6,37.1,29.85,ENE,64,3.0,16.0,24,0.00,,CLR,0.00,VWS V14.01,2013-05-16 18:10:00,
2013-05-16 13:15:00,76.8,38.3,29.85,SE,135,5.0,16.0,25,0.00,,CLR,0.00,VWS V14.01,2013-05-16 18:15:00,
2013-05-16 13:20:00,76.7,38.3,29.85,ENE,72,5.0,16.0,25,0.00,,CLR,0.00,VWS V14.01,2013-05-16 18:20:00,
2013-05-16 13:25:00,77.0,37.5,29.85,ENE,71,12.0,16.0,24,0.00,,CLR,0.00,VWS V14.01,2013-05-16 18:25:00,
2013-05-16 13:30:00,76.8,38.3,29.84,ESE,103,8.0,11.0,25,0.00,,CLR,0.00,VWS V14.01,2013-05-16 18:30:00,
2013-05-16 13:35:00,77.2,37.7,29.85,East,94,10.0,11.0,24,0.00,,CLR,0.00,VWS V14.01,2013-05-16 18:35:00,
2013-05-16 13:40:00,77.6,38.0,29.84,ENE,71,15.0,17.0,24,0.00,,CLR,0.00,VWS V14.01,2013-05-16 18:40:00,
2013-05-16 13:45:00,77.8,40.2,29.85,East,86,16.0,18.0,26,0.00,,CLR,0.00,VWS V14.01,2013-05-16 18:45:00,
2013-05-16 13:50:00,77.3,37.7,29.85,ENE,68,5.0,18.0,24,0.00,,CLR,0.00,VWS V14.01,2013-05-16 18:50:00,
2013-05-16 13:55:00,77.3,38.8,29.85,NE,46,10.0,18.0,25,0.00,,CLR,0.00,VWS V14.01,2013-05-16 18:55:00,
2013-05-16 14:00:00,77.2,36.6,29.84,NE,56,5.0,13.0,23,0.00,,CLR,0.00,VWS V14.01,2013-05-16 19:00:00,
2013-05-16 14:05:00,77.7,38.1,29.85,ENE,67,11.0,13.0,24,0.00,,CLR,0.00,VWS V14.01,2013-05-16 19:05:00,
2013-05-16 14:10:00,77.7,38.1,29.85,NW,325,3.0,13.0,24,0.00,,CLR,0.00,VWS V14.01,2013-05-16 19:10:00,
2013-05-16 14:15:00,77.9,38.2,29.84,ENE,70,10.0,14.0,24,0.00,,CLR,0.00,VWS V14.01,2013-05-16 19:15:00,
2013-05-16 14:20:00,77.9,37.2,29.84,NE,50,9.0,15.0,23,0.00,,CLR,0.00,VWS V14.01,2013-05-16 19:20:00,
2013-05-16 14:25:00,77.8,42.1,29.84,NE,56,4.0,15.0,28,0.00,,CLR,0.00,VWS V14.01,2013-05-16 19:25:00,
2013-05-16 14:30:00,78.1,42.4,29.84,NE,55,9.0,15.0,28,0.00,,CLR,0.00,VWS V14.01,2013-05-16 19:30:00,
2013-05-16 14:35:00,77.6,38.0,29.85,ENE,64,6.0,15.0,24,0.00,,CLR,0.00,VWS V14.01,2013-05-16 19:35:00,
2013-05-16 14:40:00,77.5,37.9,29.85,NNW,333,2.0,15.0,24,0.00,,CLR,0.00,VWS V14.01,2013-05-16 19:40:00,
2013-05-16 14:45:00,78.0,38.3,29.85,North,6,2.0,15.0,24,0.00,,CLR,0.00,VWS V14.01,2013-05-16 19:45:00,
2013-05-16 14:50:00,78.4,38.7,29.85,NE,49,6.0,15.0,24,0.00,,CLR,0.00,VWS V14.01,2013-05-16 19:50:00,
2013-05-16 14:55:00,78.2,38.5,29.85,NE,43,4.0,15.0,24,0.00,,CLR,0.00,VWS V14.01,2013-05-16 19:55:00,
2013-05-16 15:00:00,78.2,38.5,29.85,NE,53,9.0,9.0,24,0.00,,CLR,0.00,VWS V14.01,2013-05-16 20:00:00,
2013-05-16 15:05:00,78.2,38.5,29.84,NE,42,5.0,9.0,24,0.00,,CLR,0.00,VWS V14.01,2013-05-16 20:05:00,
2013-05-16 15:10:00,78.1,37.3,29.84,East,100,9.0,9.0,23,0.00,,CLR,0.00,VWS V14.01,2013-05-16 20:10:00,
2013-05-16 15:15:00,77.8,37.1,29.84,ENE,71,9.0,10.0,23,0.00,,CLR,0.00,VWS V14.01,2013-05-16 20:15:00,
2013-05-16 15:20:00,78.1,38.4,29.84,SSW,204,0.0,10.0,24,0.00,,CLR,0.00,VWS V14.01,2013-05-16 20:20:00,
2013-05-16 15:25:00,79.1,38.2,29.84,ENE,69,8.0,10.0,23,0.00,,CLR,0.00,VWS V14.01,2013-05-16 20:25:00,
2013-05-16 15:30:00,78.7,40.0,29.83,NE,49,4.0,12.0,25,0.00,,CLR,0.00,VWS V14.01,2013-05-16 20:30:00,
2013-05-16 15:35:00,78.7,36.7,29.83,WNW,290,3.0,12.0,22,0.00,,CLR,0.00,VWS V14.01,2013-05-16 20:35:00,
2013-05-16 15:40:00,78.8,37.9,29.83,ESE,104,11.0,12.0,23,0.00,,CLR,0.00,VWS V14.01,2013-05-16 20:40:00,
2013-05-16 15:45:00,78.7,37.8,29.83,NE,56,4.0,12.0,23,0.00,,CLR,0.00,VWS V14.01,2013-05-16 20:45:00,
2013-05-16 15:50:00,78.7,36.7,29.83,NE,46,9.0,12.0,22,0.00,,CLR,0.00,VWS V14.01,2013-05-16 20:50:00,
2013-05-16 15:55:00,79.0,38.1,29.83,NE,53,5.0,14.0,23,0.00,,CLR,0.00,VWS V14.01,2013-05-16 20:55:00,
2013-05-16 16:00:00,78.7,38.9,29.83,NE,44,5.0,6.0,24,0.00,,CLR,0.00,VWS V14.01,2013-05-16 21:00:00,
2013-05-16 16:05:00,78.3,36.4,29.83,ESE,108,2.0,6.0,22,0.00,,CLR,0.00,VWS V14.01,2013-05-16 21:05:00,
2013-05-16 16:10:00,78.3,37.5,29.84,ENE,58,4.0,7.0,23,0.00,,CLR,0.00,VWS V14.01,2013-05-16 21:10:00,
2013-05-16 16:15:00,78.6,36.6,29.84,ENE,69,6.0,8.0,22,0.00,,CLR,0.00,VWS V14.01,2013-05-16 21:15:00,
2013-05-16 16:20:00,78.8,37.9,29.84,SE,131,2.0,9.0,23,0.00,,CLR,0.00,VWS V14.01,2013-05-16 21:20:00,
2013-05-16 16:25:00,79.0,37.0,29.84,NNE,29,4.0,9.0,22,0.00,,CLR,0.00,VWS V14.01,2013-05-16 21:25:00,
2013-05-16 16:30:00,79.2,38.2,29.84,NE,39,7.0,9.0,23,0.00,,CLR,0.00,VWS V14.01,2013-05-16 21:30:00,
2013-05-16 16:35:00,78.7,37.8,29.84,ENE,73,2.0,9.0,23,0.00,,CLR,0.00,VWS V14.01,2013-05-16 21:35:00,
2013-05-16 16:40:00,78.7,37.8,29.84,ENE,58,3.0,9.0,23,0.00,,CLR,0.00,VWS V14.01,2013-05-16 21:40:00,
2013-05-16 16:45:00,79.0,35.8,29.83,NE,53,2.0,9.0,21,0.00,,CLR,0.00,VWS V14.01,2013-05-16 21:45:00,
2013-05-16 16:50:00,79.1,38.2,29.84,NE,53,3.0,9.0,23,0.00,,CLR,0.00,VWS V14.01,2013-05-16 21:50:00,
2013-05-16 16:55:00,79.2,35.9,29.84,NE,39,6.0,9.0,21,0.00,,CLR,0.00,VWS V14.01,2013-05-16 21:55:00,
2013-05-16 17:00:00,79.2,35.9,29.84,East,100,11.0,12.0,21,0.00,,CLR,0.00,VWS V14.01,2013-05-16 22:00:00,
2013-05-16 17:05:00,78.8,37.9,29.84,NE,56,5.0,13.0,23,0.00,,CLR,0.00,VWS V14.01,2013-05-16 22:05:00,
2013-05-16 17:10:00,78.5,36.5,29.84,ENE,64,4.0,13.0,22,0.00,,CLR,0.00,VWS V14.01,2013-05-16 22:10:00,
2013-05-16 17:15:00,78.5,37.7,29.84,ENE,64,4.0,13.0,23,0.00,,CLR,0.00,VWS V14.01,2013-05-16 22:15:00,
2013-05-16 17:20:00,78.4,35.3,29.84,ENE,78,3.0,13.0,21,0.00,,CLR,0.00,VWS V14.01,2013-05-16 22:20:00,
2013-05-16 17:25:00,78.6,36.6,29.84,East,99,4.0,13.0,22,0.00,,CLR,0.00,VWS V14.01,2013-05-16 22:25:00,
2013-05-16 17:30:00,78.6,36.6,29.84,East,84,5.0,8.0,22,0.00,,CLR,0.00,VWS V14.01,2013-05-16 22:30:00,
2013-05-16 17:35:00,78.6,35.4,29.84,ENE,61,3.0,8.0,21,0.00,,CLR,0.00,VWS V14.01,2013-05-16 22:35:00,
2013-05-16 17:40:00,78.5,37.7,29.84,ENE,64,3.0,8.0,23,0.00,,CLR,0.00,VWS V14.01,2013-05-16 22:40:00,
2013-05-16 17:45:00,78.5,38.7,29.84,NE,56,2.0,8.0,24,0.00,,CLR,0.00,VWS V14.01,2013-05-16 22:45:00,
2013-05-16 17:50:00,78.4,35.3,29.84,NE,43,6.0,9.0,21,0.00,,CLR,0.00,VWS V14.01,2013-05-16 22:50:00,
2013-05-16 17:55:00,78.3,36.4,29.84,NE,41,5.0,9.0,22,0.00,,CLR,0.00,VWS V14.01,2013-05-16 22:55:00,
2013-05-16 18:00:00,78.0,36.1,29.84,NE,53,5.0,8.0,22,0.00,,CLR,0.00,VWS V14.01,2013-05-16 23:00:00,
2013-05-16 18:05:00,78.0,37.2,29.84,ENE,64,7.0,10.0,23,0.00,,CLR,0.00,VWS V14.01,2013-05-16 23:05:00,
2013-05-16 18:10:00,77.8,36.0,29.84,ENE,72,8.0,12.0,22,0.00,,CLR,0.00,VWS V14.01,2013-05-16 23:10:00,
2013-05-16 18:15:00,77.7,37.0,29.84,ENE,76,7.0,14.0,23,0.00,,CLR,0.00,VWS V14.01,2013-05-16 23:15:00,
2013-05-16 18:20:00,77.6,36.9,29.84,ENE,58,5.0,14.0,23,0.00,,CLR,0.00,VWS V14.01,2013-05-16 23:20:00,
2013-05-16 18:25:00,77.6,35.8,29.84,ENE,57,6.0,14.0,22,0.00,,CLR,0.00,VWS V14.01,2013-05-16 23:25:00,
2013-05-16 18:30:00,77.5,35.7,29.84,NE,52,6.0,8.0,22,0.00,,CLR,0.00,VWS V14.01,2013-05-16 23:30:00,
2013-05-16 18:35:00,77.3,35.5,29.84,NE,46,9.0,12.0,22,0.00,,CLR,0.00,VWS V14.01,2013-05-16 23:35:00,
2013-05-16 18:40:00,77.1,35.4,29.84,NE,54,6.0,12.0,22,0.00,,CLR,0.00,VWS V14.01,2013-05-16 23:40:00,
2013-05-16 18:45:00,77.0,36.4,29.84,ENE,68,3.0,12.0,23,0.00,,CLR,0.00,VWS V14.01,2013-05-16 23:45:00,
2013-05-16 18:50:00,76.8,36.2,29.84,ENE,64,12.0,12.0,23,0.00,,CLR,0.00,VWS V14.01,2013-05-16 23:50:00,
2013-05-16 18:55:00,76.4,35.9,29.84,ENE,78,9.0,15.0,23,0.00,,CLR,0.00,VWS V14.01,2013-05-16 23:55:00,
2013-05-16 19:00:00,76.1,35.7,29.84,ENE,70,5.0,16.0,23,0.00,,CLR,0.00,VWS V14.01,2013-05-17 00:00:00,
2013-05-16 19:05:00,75.7,36.4,29.84,ENE,63,6.0,16.0,24,0.00,,CLR,0.00,VWS V14.01,2013-05-17 00:05:00,
2013-05-16 19:10:00,75.5,36.2,29.83,ENE,71,6.0,16.0,24,0.00,,CLR,0.00,VWS V14.01,2013-05-17 00:10:00,
2013-05-16 19:15:00,75.5,35.2,29.83,NE,53,6.0,16.0,23,0.00,,CLR,0.00,VWS V14.01,2013-05-17 00:15:00,
2013-05-16 19:20:00,75.3,36.0,29.83,NE,46,5.0,16.0,24,0.00,,CLR,0.00,VWS V14.01,2013-05-17 00:20:00,
2013-05-16 19:25:00,74.9,34.6,29.84,ENE,60,9.0,16.0,23,0.00,,CLR,0.00,VWS V14.01,2013-05-17 00:25:00,
2013-05-16 19:30:00,74.6,34.4,29.84,East,79,9.0,16.0,23,0.00,,CLR,0.00,VWS V14.01,2013-05-17 00:30:00,
2013-05-16 19:35:00,74.5,34.3,29.84,ENE,70,8.0,18.0,23,0.00,,CLR,0.00,VWS V14.01,2013-05-17 00:35:00,
2013-05-16 19:40:00,74.3,34.1,29.85,ENE,67,7.0,18.0,23,0.00,,CLR,0.00,VWS V14.01,2013-05-17 00:40:00,
2013-05-16 19:45:00,74.0,33.9,29.85,ENE,75,11.0,20.0,23,0.00,,CLR,0.00,VWS V14.01,2013-05-17 00:45:00,
2013-05-16 19:50:00,73.7,33.6,29.85,ENE,76,10.0,25.0,23,0.00,,CLR,0.00,VWS V14.01,2013-05-17 00:50:00,
2013-05-16 19:55:00,73.5,34.5,29.86,ENE,74,15.0,25.0,24,0.00,,CLR,0.00,VWS V14.01,2013-05-17 00:55:00,
2013-05-16 20:00:00,73.2,33.2,29.86,NE,53,9.0,20.0,23,0.00,,CLR,0.00,VWS V14.01,2013-05-17 01:00:00,
2013-05-16 20:05:00,72.8,32.9,29.86,East,100,20.0,24.0,23,0.00,,CLR,0.00,VWS V14.01,2013-05-17 01:05:00,
2013-05-16 20:10:00,72.5,33.7,29.87,ESE,110,13.0,24.0,24,0.00,,CLR,0.00,VWS V14.01,2013-05-17 01:10:00,
2013-05-16 20:15:00,72.3,34.5,29.87,ENE,64,9.0,24.0,25,0.00,,CLR,0.00,VWS V14.01,2013-05-17 01:15:00,
2013-05-16 20:20:00,72.0,33.3,29.87,NE,52,9.0,24.0,24,0.00,,CLR,0.00,VWS V14.01,2013-05-17 01:20:00,
2013-05-16 20:25:00,71.9,33.2,29.87,NE,56,6.0,24.0,24,0.00,,CLR,0.00,VWS V14.01,2013-05-17 01:25:00,
2013-05-16 20:30:00,71.6,32.9,29.87,NE,49,8.0,15.0,24,0.00,,CLR,0.00,VWS V14.01,2013-05-17 01:30:00,
2013-05-16 20:35:00,71.4,33.8,29.87,NE,52,5.0,19.0,25,0.00,,CLR,0.00,VWS V14.01,2013-05-17 01:35:00,
2013-05-16 20:40:00,71.1,33.5,29.87,NE,46,8.0,19.0,25,0.00,,CLR,0.00,VWS V14.01,2013-05-17 01:40:00,
2013-05-16 20:45:00,71.1,33.5,29.87,ENE,76,8.0,19.0,25,0.00,,CLR,0.00,VWS V14.01,2013-05-17 01:45:00,
2013-05-16 20:50:00,70.8,33.3,29.87,NE,49,11.0,19.0,25,0.00,,CLR,0.00,VWS V14.01,2013-05-17 01:50:00,
2013-05-16 20:55:00,70.6,34.1,29.87,ENE,72,9.0,19.0,26,0.00,,CLR,0.00,VWS V14.01,2013-05-17 01:55:00,
2013-05-16 21:00:00,70.4,32.9,29.87,ENE,71,7.0,15.0,25,0.00,,CLR,0.00,VWS V14.01,2013-05-17 02:00:00,
2013-05-16 21:05:00,70.2,32.8,29.87,NE,56,12.0,15.0,25,0.00,,CLR,0.00,VWS V14.01,2013-05-17 02:05:00,
2013-05-16 21:10:00,70.0,33.6,29.87,East,83,9.0,15.0,26,0.00,,CLR,0.00,VWS V14.01,2013-05-17 02:10:00,
2013-05-16 21:15:00,69.7,33.3,29.88,ENE,68,6.0,15.0,26,0.00,,CLR,0.00,VWS V14.01,2013-05-17 02:15:00,
2013-05-16 21:20:00,69.6,33.2,29.88,ENE,68,8.0,15.0,26,0.00,,CLR,0.00,VWS V14.01,2013-05-17 02:20:00,
2013-05-16 21:25:00,69.3,33.0,29.88,ENE,60,8.0,15.0,26,0.00,,CLR,0.00,VWS V14.01,2013-05-17 02:25:00,
2013-05-16 21:30:00,69.2,32.9,29.88,East,79,10.0,12.0,26,0.00,,CLR,0.00,VWS V14.01,2013-05-17 02:30:00,
2013-05-16 21:35:00,69.0,32.7,29.88,ENE,71,5.0,14.0,26,0.00,,CLR,0.00,VWS V14.01,2013-05-17 02:35:00,
2013-05-16 21:40:00,68.8,32.5,29.88,ENE,71,10.0,15.0,26,0.00,,CLR,0.00,VWS V14.01,2013-05-17 02:40:00,
2013-05-16 21:45:00,68.6,32.4,29.88,East,82,13.0,15.0,26,0.00,,CLR,0.00,VWS V14.01,2013-05-17 02:45:00,
2013-05-16 21:50:00,68.6,31.4,29.88,ESE,110,7.0,18.0,25,0.00,,CLR,0.00,VWS V14.01,2013-05-17 02:50:00,
2013-05-16 21:55:00,68.3,31.1,29.88,ENE,77,10.0,18.0,25,0.00,,CLR,0.00,VWS V14.01,2013-05-17 02:55:00,
2013-05-16 22:00:00,68.1,30.0,29.88,East,90,10.0,14.0,24,0.00,,CLR,0.00,VWS V14.01,2013-05-17 03:00:00,
2013-05-16 22:05:00,68.0,29.9,29.88,ESE,105,7.0,14.0,24,0.00,,CLR,0.00,VWS V14.01,2013-05-17 03:05:00,
2013-05-16 22:10:00,67.8,29.7,29.88,ENE,75,12.0,17.0,24,0.00,,CLR,0.00,VWS V14.01,2013-05-17 03:10:00,
2013-05-16 22:15:00,67.6,29.6,29.88,ENE,72,10.0,17.0,24,0.00,,CLR,0.00,VWS V14.01,2013-05-17 03:15:00,
2013-05-16 22:20:00,67.5,29.5,29.88,East,95,8.0,17.0,24,0.00,,CLR,0.00,VWS V14.01,2013-05-17 03:20:00,
2013-05-16 22:25:00,67.1,30.1,29.88,ENE,74,6.0,17.0,25,0.00,,CLR,0.00,VWS V14.01,2013-05-17 03:25:00,
2013-05-16 22:30:00,67.1,29.1,29.88,ENE,61,5.0,10.0,24,0.00,,CLR,0.00,VWS V14.01,2013-05-17 03:30:00,
2013-05-16 22:35:00,67.0,29.0,29.88,ENE,76,8.0,11.0,24,0.00,,CLR,0.00,VWS V14.01,2013-05-17 03:35:00,
2013-05-16 22:40:00,66.9,29.0,29.88,ENE,70,9.0,12.0,24,0.00,,CLR,0.00,VWS V14.01,2013-05-17 03:40:00,
2013-05-16 22:45:00,66.9,29.0,29.88,ENE,68,5.0,15.0,24,0.00,,CLR,0.00,VWS V14.01,2013-05-17 03:45:00,
2013-05-16 22:50:00,66.7,29.8,29.88,East,100,6.0,15.0,25,0.00,,CLR,0.00,VWS V14.01,2013-05-17 03:50:00,
2013-05-16 22:55:00,66.6,30.7,29.88,East,79,5.0,15.0,26,0.00,,CLR,0.00,VWS V14.01,2013-05-17 03:55:00,
2013-05-16 23:00:00,66.4,30.5,29.89,ENE,77,8.0,9.0,26,0.00,,CLR,0.00,VWS V14.01,2013-05-17 04:00:00,
2013-05-16 23:01:00,66.3,30.4,29.89,East,96,7.0,9.0,26,0.00,,CLR,0.00,VWS V14.01,2013-05-17 04:01:00,
2013-05-16 23:06:00,66.1,31.2,29.89,ESE,102,4.0,9.0,27,0.00,,CLR,0.00,VWS V14.01,2013-05-17 04:06:00,
2013-05-16 23:11:00,66.0,30.2,29.89,East,99,6.0,10.0,26,0.00,,CLR,0.00,VWS V14.01,2013-05-17 04:11:00,
2013-05-16 23:16:00,65.9,31.0,29.89,ESE,107,4.0,10.0,27,0.00,,CLR,0.00,VWS V14.01,2013-05-17 04:16:00,
2013-05-16 23:21:00,65.8,30.0,29.89,East,99,4.0,10.0,26,0.00,,CLR,0.00,VWS V14.01,2013-05-17 04:21:00,
2013-05-16 23:26:00,65.9,30.1,29.90,East,99,7.0,11.0,26,0.00,,CLR,0.00,VWS V14.01,2013-05-17 04:26:00,
2013-05-16 23:31:00,66.0,29.2,29.89,East,87,6.0,9.0,25,0.00,,CLR,0.00,VWS V14.01,2013-05-17 04:31:00,
2013-05-16 23:36:00,66.1,29.3,29.89,East,96,9.0,9.0,25,0.00,,CLR,0.00,VWS V14.01,2013-05-17 04:36:00,
2013-05-16 23:41:00,66.1,29.3,29.89,SE,125,6.0,9.0,25,0.00,,CLR,0.00,VWS V14.01,2013-05-17 04:41:00,
2013-05-16 23:46:00,66.0,29.2,29.89,ESE,105,3.0,9.0,25,0.00,,CLR,0.00,VWS V14.01,2013-05-17 04:46:00,
2013-05-16 23:51:00,65.9,29.1,29.90,East,100,4.0,9.0,25,0.00,,CLR,0.00,VWS V14.01,2013-05-17 04:51:00,
2013-05-16 23:56:00,65.8,29.0,29.90,East,99,3.0,9.0,25,0.00,,CLR,0.00,VWS V14.01,2013-05-17 04:56:00,